sensor_id;sensor_type;location;lat;lon;timestamp;P1;durP1;ratioP1;P2;durP2;ratioP2
76978;SDS011;65911;47.502;19.148;2024-01-15T00:01:14;34.03;;;16.30;;
76978;SDS011;65911;47.502;19.148;2024-01-15T00:04:17;35.00;;;15.48;;
76978;SDS011;65911;47.502;19.148;2024-01-15T00:07:19;33.22;;;16.17;;
76978;SDS011;65911;47.502;19.148;2024-01-15T00:10:22;35.35;;;16.40;;
76978;SDS011;65911;47.502;19.148;2024-01-15T00:13:25;30.90;;;16.20;;
76978;SDS011;65911;47.502;19.148;2024-01-15T00:16:27;34.13;;;16.48;;
76978;SDS011;65911;47.502;19.148;2024-01-15T00:19:29;37.58;;;16.33;;
76978;SDS011;65911;47.502;19.148;2024-01-15T00:22:34;33.90;;;16.20;;
76978;SDS011;65911;47.502;19.148;2024-01-15T00:25:37;29.88;;;15.85;;
76978;SDS011;65911;47.502;19.148;2024-01-15T00:28:39;35.60;;;15.55;;
76978;SDS011;65911;47.502;19.148;2024-01-15T00:31:42;33.17;;;15.97;;
76978;SDS011;65911;47.502;19.148;2024-01-15T00:34:44;30.70;;;15.43;;
76978;SDS011;65911;47.502;19.148;2024-01-15T00:37:46;32.65;;;15.77;;
76978;SDS011;65911;47.502;19.148;2024-01-15T00:40:48;33.10;;;16.52;;
76978;SDS011;65911;47.502;19.148;2024-01-15T00:43:51;31.98;;;16.25;;
76978;SDS011;65911;47.502;19.148;2024-01-15T00:46:53;33.72;;;16.30;;
76978;SDS011;65911;47.502;19.148;2024-01-15T00:49:55;29.77;;;15.52;;
76978;SDS011;65911;47.502;19.148;2024-01-15T00:52:57;31.33;;;15.80;;
76978;SDS011;65911;47.502;19.148;2024-01-15T00:56:00;32.58;;;16.00;;
76978;SDS011;65911;47.502;19.148;2024-01-15T00:59:02;32.50;;;15.65;;
76978;SDS011;65911;47.502;19.148;2024-01-15T01:02:04;30.37;;;15.87;;
76978;SDS011;65911;47.502;19.148;2024-01-15T01:05:07;34.22;;;16.27;;
76978;SDS011;65911;47.502;19.148;2024-01-15T01:08:09;27.88;;;14.98;;
76978;SDS011;65911;47.502;19.148;2024-01-15T01:11:15;30.92;;;15.82;;
76978;SDS011;65911;47.502;19.148;2024-01-15T01:14:17;30.10;;;15.25;;
76978;SDS011;65911;47.502;19.148;2024-01-15T01:17:20;30.20;;;15.00;;
76978;SDS011;65911;47.502;19.148;2024-01-15T01:20:22;32.28;;;15.88;;
76978;SDS011;65911;47.502;19.148;2024-01-15T01:23:24;29.30;;;14.97;;
76978;SDS011;65911;47.502;19.148;2024-01-15T01:26:27;24.92;;;14.70;;
76978;SDS011;65911;47.502;19.148;2024-01-15T01:29:29;30.38;;;15.18;;
76978;SDS011;65911;47.502;19.148;2024-01-15T01:32:31;28.90;;;14.87;;
76978;SDS011;65911;47.502;19.148;2024-01-15T01:35:33;28.55;;;15.23;;
76978;SDS011;65911;47.502;19.148;2024-01-15T01:38:36;29.33;;;14.85;;
76978;SDS011;65911;47.502;19.148;2024-01-15T01:41:39;31.10;;;15.43;;
76978;SDS011;65911;47.502;19.148;2024-01-15T01:44:41;29.70;;;14.45;;
76978;SDS011;65911;47.502;19.148;2024-01-15T01:47:44;28.35;;;14.95;;
76978;SDS011;65911;47.502;19.148;2024-01-15T01:50:46;31.00;;;15.45;;
76978;SDS011;65911;47.502;19.148;2024-01-15T01:53:48;30.67;;;14.87;;
76978;SDS011;65911;47.502;19.148;2024-01-15T01:56:50;31.02;;;15.50;;
76978;SDS011;65911;47.502;19.148;2024-01-15T01:59:53;30.90;;;14.65;;
76978;SDS011;65911;47.502;19.148;2024-01-15T02:02:55;31.30;;;15.90;;
76978;SDS011;65911;47.502;19.148;2024-01-15T02:05:59;27.52;;;14.82;;
76978;SDS011;65911;47.502;19.148;2024-01-15T02:09:01;31.75;;;16.60;;
76978;SDS011;65911;47.502;19.148;2024-01-15T02:12:05;28.42;;;15.40;;
76978;SDS011;65911;47.502;19.148;2024-01-15T02:15:07;30.38;;;15.93;;
76978;SDS011;65911;47.502;19.148;2024-01-15T02:18:10;31.48;;;15.90;;
76978;SDS011;65911;47.502;19.148;2024-01-15T02:21:12;26.73;;;15.82;;
76978;SDS011;65911;47.502;19.148;2024-01-15T02:24:14;29.23;;;15.47;;
76978;SDS011;65911;47.502;19.148;2024-01-15T02:27:17;29.38;;;15.52;;
76978;SDS011;65911;47.502;19.148;2024-01-15T02:30:20;32.67;;;15.95;;
76978;SDS011;65911;47.502;19.148;2024-01-15T02:33:23;29.33;;;16.00;;
76978;SDS011;65911;47.502;19.148;2024-01-15T02:36:25;29.42;;;15.52;;
76978;SDS011;65911;47.502;19.148;2024-01-15T02:39:28;28.90;;;15.80;;
76978;SDS011;65911;47.502;19.148;2024-01-15T02:42:31;31.17;;;15.63;;
76978;SDS011;65911;47.502;19.148;2024-01-15T02:45:33;29.75;;;15.85;;
76978;SDS011;65911;47.502;19.148;2024-01-15T02:48:35;31.08;;;16.50;;
76978;SDS011;65911;47.502;19.148;2024-01-15T02:51:38;31.92;;;15.25;;
76978;SDS011;65911;47.502;19.148;2024-01-15T02:54:40;30.40;;;15.87;;
76978;SDS011;65911;47.502;19.148;2024-01-15T02:57:42;29.50;;;15.85;;
76978;SDS011;65911;47.502;19.148;2024-01-15T03:00:45;31.30;;;16.63;;
76978;SDS011;65911;47.502;19.148;2024-01-15T03:03:48;31.67;;;16.67;;
76978;SDS011;65911;47.502;19.148;2024-01-15T03:06:50;32.13;;;16.23;;
76978;SDS011;65911;47.502;19.148;2024-01-15T03:09:53;32.75;;;16.50;;
76978;SDS011;65911;47.502;19.148;2024-01-15T03:12:55;35.10;;;16.27;;
76978;SDS011;65911;47.502;19.148;2024-01-15T03:15:57;28.75;;;15.75;;
76978;SDS011;65911;47.502;19.148;2024-01-15T03:18:59;27.23;;;15.35;;
76978;SDS011;65911;47.502;19.148;2024-01-15T03:22:02;32.78;;;16.25;;
76978;SDS011;65911;47.502;19.148;2024-01-15T03:25:05;31.23;;;16.47;;
76978;SDS011;65911;47.502;19.148;2024-01-15T03:28:08;31.77;;;15.93;;
76978;SDS011;65911;47.502;19.148;2024-01-15T03:31:10;32.58;;;16.38;;
76978;SDS011;65911;47.502;19.148;2024-01-15T03:34:13;33.27;;;17.03;;
76978;SDS011;65911;47.502;19.148;2024-01-15T03:37:15;34.03;;;16.08;;
76978;SDS011;65911;47.502;19.148;2024-01-15T03:40:17;30.92;;;16.13;;
76978;SDS011;65911;47.502;19.148;2024-01-15T03:43:24;32.33;;;16.48;;
76978;SDS011;65911;47.502;19.148;2024-01-15T03:46:26;32.58;;;16.58;;
76978;SDS011;65911;47.502;19.148;2024-01-15T03:49:29;31.38;;;16.25;;
76978;SDS011;65911;47.502;19.148;2024-01-15T03:52:31;30.48;;;16.58;;
76978;SDS011;65911;47.502;19.148;2024-01-15T03:55:34;31.40;;;15.90;;
76978;SDS011;65911;47.502;19.148;2024-01-15T03:58:36;32.78;;;16.83;;
76978;SDS011;65911;47.502;19.148;2024-01-15T04:01:38;33.10;;;15.95;;
76978;SDS011;65911;47.502;19.148;2024-01-15T04:04:41;36.97;;;17.50;;
76978;SDS011;65911;47.502;19.148;2024-01-15T04:07:44;35.65;;;16.75;;
76978;SDS011;65911;47.502;19.148;2024-01-15T04:10:46;32.72;;;16.67;;
76978;SDS011;65911;47.502;19.148;2024-01-15T04:13:49;30.80;;;16.45;;
76978;SDS011;65911;47.502;19.148;2024-01-15T04:16:51;34.08;;;16.85;;
76978;SDS011;65911;47.502;19.148;2024-01-15T04:19:53;33.38;;;16.98;;
76978;SDS011;65911;47.502;19.148;2024-01-15T04:22:56;32.60;;;15.93;;
76978;SDS011;65911;47.502;19.148;2024-01-15T04:25:58;34.37;;;16.73;;
76978;SDS011;65911;47.502;19.148;2024-01-15T04:29:00;33.17;;;17.58;;
76978;SDS011;65911;47.502;19.148;2024-01-15T04:32:02;31.05;;;16.58;;
76978;SDS011;65911;47.502;19.148;2024-01-15T04:35:05;32.33;;;17.27;;
76978;SDS011;65911;47.502;19.148;2024-01-15T04:38:07;35.70;;;17.67;;
76978;SDS011;65911;47.502;19.148;2024-01-15T04:41:13;36.13;;;17.92;;
76978;SDS011;65911;47.502;19.148;2024-01-15T04:44:15;36.33;;;17.90;;
76978;SDS011;65911;47.502;19.148;2024-01-15T04:47:18;37.38;;;18.52;;
76978;SDS011;65911;47.502;19.148;2024-01-15T04:50:20;38.47;;;18.40;;
76978;SDS011;65911;47.502;19.148;2024-01-15T04:53:22;36.63;;;17.40;;
76978;SDS011;65911;47.502;19.148;2024-01-15T04:56:24;30.47;;;16.10;;
76978;SDS011;65911;47.502;19.148;2024-01-15T04:59:27;36.70;;;17.60;;
76978;SDS011;65911;47.502;19.148;2024-01-15T05:02:29;33.67;;;16.92;;
76978;SDS011;65911;47.502;19.148;2024-01-15T05:05:31;34.10;;;17.23;;
76978;SDS011;65911;47.502;19.148;2024-01-15T05:08:33;34.75;;;17.05;;
76978;SDS011;65911;47.502;19.148;2024-01-15T05:11:35;33.28;;;17.88;;
76978;SDS011;65911;47.502;19.148;2024-01-15T05:14:38;30.75;;;17.77;;
76978;SDS011;65911;47.502;19.148;2024-01-15T05:17:40;34.33;;;17.73;;
76978;SDS011;65911;47.502;19.148;2024-01-15T05:20:42;34.90;;;18.15;;
76978;SDS011;65911;47.502;19.148;2024-01-15T05:23:44;33.13;;;17.60;;
76978;SDS011;65911;47.502;19.148;2024-01-15T05:26:47;31.07;;;16.40;;
76978;SDS011;65911;47.502;19.148;2024-01-15T05:29:49;35.05;;;18.17;;
76978;SDS011;65911;47.502;19.148;2024-01-15T05:32:51;35.17;;;16.90;;
76978;SDS011;65911;47.502;19.148;2024-01-15T05:35:53;34.20;;;18.17;;
76978;SDS011;65911;47.502;19.148;2024-01-15T05:38:56;33.72;;;17.27;;
76978;SDS011;65911;47.502;19.148;2024-01-15T05:41:58;32.42;;;17.33;;
76978;SDS011;65911;47.502;19.148;2024-01-15T05:45:02;34.65;;;18.52;;
76978;SDS011;65911;47.502;19.148;2024-01-15T05:48:07;39.33;;;19.65;;
76978;SDS011;65911;47.502;19.148;2024-01-15T05:51:10;39.22;;;18.75;;
76978;SDS011;65911;47.502;19.148;2024-01-15T05:54:12;39.10;;;19.05;;
76978;SDS011;65911;47.502;19.148;2024-01-15T05:57:14;39.03;;;19.00;;
76978;SDS011;65911;47.502;19.148;2024-01-15T06:00:17;40.15;;;19.98;;
76978;SDS011;65911;47.502;19.148;2024-01-15T06:03:19;39.05;;;20.08;;
76978;SDS011;65911;47.502;19.148;2024-01-15T06:06:21;40.60;;;19.63;;
76978;SDS011;65911;47.502;19.148;2024-01-15T06:09:24;38.17;;;19.55;;
76978;SDS011;65911;47.502;19.148;2024-01-15T06:12:27;39.20;;;20.05;;
76978;SDS011;65911;47.502;19.148;2024-01-15T06:15:30;43.70;;;21.48;;
76978;SDS011;65911;47.502;19.148;2024-01-15T06:18:32;51.05;;;21.35;;
76978;SDS011;65911;47.502;19.148;2024-01-15T06:21:34;48.30;;;21.77;;
76978;SDS011;65911;47.502;19.148;2024-01-15T06:24:36;54.63;;;23.25;;
76978;SDS011;65911;47.502;19.148;2024-01-15T06:27:39;54.07;;;22.77;;
76978;SDS011;65911;47.502;19.148;2024-01-15T06:30:41;56.97;;;24.98;;
76978;SDS011;65911;47.502;19.148;2024-01-15T06:33:44;56.58;;;22.73;;
76978;SDS011;65911;47.502;19.148;2024-01-15T06:36:49;52.77;;;23.17;;
76978;SDS011;65911;47.502;19.148;2024-01-15T06:39:52;55.72;;;24.50;;
76978;SDS011;65911;47.502;19.148;2024-01-15T06:42:54;51.50;;;23.33;;
76978;SDS011;65911;47.502;19.148;2024-01-15T06:45:56;48.05;;;21.75;;
76978;SDS011;65911;47.502;19.148;2024-01-15T06:48:58;50.28;;;21.33;;
76978;SDS011;65911;47.502;19.148;2024-01-15T06:52:01;52.42;;;22.10;;
76978;SDS011;65911;47.502;19.148;2024-01-15T06:55:03;45.03;;;20.50;;
76978;SDS011;65911;47.502;19.148;2024-01-15T06:58:07;44.47;;;21.37;;
76978;SDS011;65911;47.502;19.148;2024-01-15T07:01:10;40.92;;;20.90;;
76978;SDS011;65911;47.502;19.148;2024-01-15T07:04:12;44.97;;;20.08;;
76978;SDS011;65911;47.502;19.148;2024-01-15T07:11:19;45.25;;;20.98;;
76978;SDS011;65911;47.502;19.148;2024-01-15T07:18:04;45.20;;;21.20;;
76978;SDS011;65911;47.502;19.148;2024-01-15T07:21:07;39.50;;;20.88;;
76978;SDS011;65911;47.502;19.148;2024-01-15T07:24:10;41.50;;;20.67;;
76978;SDS011;65911;47.502;19.148;2024-01-15T07:27:13;43.75;;;21.30;;
76978;SDS011;65911;47.502;19.148;2024-01-15T07:30:15;45.90;;;21.37;;
76978;SDS011;65911;47.502;19.148;2024-01-15T07:33:18;43.25;;;20.35;;
76978;SDS011;65911;47.502;19.148;2024-01-15T07:36:21;38.42;;;19.85;;
76978;SDS011;65911;47.502;19.148;2024-01-15T07:39:23;45.93;;;21.47;;
76978;SDS011;65911;47.502;19.148;2024-01-15T07:42:26;41.40;;;19.92;;
76978;SDS011;65911;47.502;19.148;2024-01-15T07:45:28;41.15;;;21.13;;
76978;SDS011;65911;47.502;19.148;2024-01-15T07:48:31;39.72;;;20.45;;
76978;SDS011;65911;47.502;19.148;2024-01-15T07:51:34;41.05;;;20.13;;
76978;SDS011;65911;47.502;19.148;2024-01-15T07:54:36;42.65;;;20.95;;
76978;SDS011;65911;47.502;19.148;2024-01-15T07:57:38;43.63;;;21.05;;
76978;SDS011;65911;47.502;19.148;2024-01-15T08:00:41;45.30;;;20.43;;
76978;SDS011;65911;47.502;19.148;2024-01-15T08:03:43;40.97;;;20.70;;
76978;SDS011;65911;47.502;19.148;2024-01-15T08:06:59;41.75;;;19.50;;
76978;SDS011;65911;47.502;19.148;2024-01-15T08:10:08;38.20;;;19.87;;
76978;SDS011;65911;47.502;19.148;2024-01-15T08:13:23;39.42;;;19.80;;
76978;SDS011;65911;47.502;19.148;2024-01-15T08:16:28;41.45;;;20.48;;
76978;SDS011;65911;47.502;19.148;2024-01-15T08:19:31;40.53;;;20.90;;
76978;SDS011;65911;47.502;19.148;2024-01-15T08:22:33;39.30;;;20.98;;
76978;SDS011;65911;47.502;19.148;2024-01-15T08:25:36;41.53;;;20.00;;
76978;SDS011;65911;47.502;19.148;2024-01-15T08:28:38;43.33;;;21.00;;
76978;SDS011;65911;47.502;19.148;2024-01-15T08:31:40;39.43;;;21.07;;
76978;SDS011;65911;47.502;19.148;2024-01-15T08:34:43;36.53;;;19.52;;
76978;SDS011;65911;47.502;19.148;2024-01-15T08:37:45;35.40;;;17.95;;
76978;SDS011;65911;47.502;19.148;2024-01-15T08:40:49;31.70;;;16.30;;
76978;SDS011;65911;47.502;19.148;2024-01-15T08:43:51;32.83;;;16.90;;
76978;SDS011;65911;47.502;19.148;2024-01-15T08:46:58;29.85;;;15.52;;
76978;SDS011;65911;47.502;19.148;2024-01-15T08:50:00;29.75;;;14.25;;
76978;SDS011;65911;47.502;19.148;2024-01-15T08:53:05;28.10;;;14.25;;
76978;SDS011;65911;47.502;19.148;2024-01-15T08:56:07;27.95;;;13.85;;
76978;SDS011;65911;47.502;19.148;2024-01-15T08:59:10;22.90;;;13.52;;
76978;SDS011;65911;47.502;19.148;2024-01-15T09:02:13;26.83;;;12.47;;
76978;SDS011;65911;47.502;19.148;2024-01-15T09:05:15;25.60;;;12.55;;
76978;SDS011;65911;47.502;19.148;2024-01-15T09:08:18;24.33;;;11.88;;
76978;SDS011;65911;47.502;19.148;2024-01-15T09:11:21;23.60;;;12.73;;
76978;SDS011;65911;47.502;19.148;2024-01-15T09:14:25;21.85;;;10.90;;
76978;SDS011;65911;47.502;19.148;2024-01-15T09:17:38;21.70;;;11.10;;
76978;SDS011;65911;47.502;19.148;2024-01-15T09:20:40;18.70;;;10.43;;
76978;SDS011;65911;47.502;19.148;2024-01-15T09:23:42;21.25;;;10.43;;
76978;SDS011;65911;47.502;19.148;2024-01-15T09:26:45;18.55;;;10.30;;
76978;SDS011;65911;47.502;19.148;2024-01-15T09:29:47;17.80;;;9.88;;
76978;SDS011;65911;47.502;19.148;2024-01-15T09:32:49;19.83;;;9.20;;
76978;SDS011;65911;47.502;19.148;2024-01-15T09:35:52;18.77;;;9.00;;
76978;SDS011;65911;47.502;19.148;2024-01-15T09:38:56;17.42;;;8.40;;
76978;SDS011;65911;47.502;19.148;2024-01-15T09:41:58;19.43;;;9.13;;
76978;SDS011;65911;47.502;19.148;2024-01-15T09:45:01;13.20;;;7.60;;
76978;SDS011;65911;47.502;19.148;2024-01-15T09:48:05;13.25;;;7.25;;
76978;SDS011;65911;47.502;19.148;2024-01-15T09:51:08;14.73;;;7.68;;
76978;SDS011;65911;47.502;19.148;2024-01-15T09:54:11;14.18;;;7.35;;
76978;SDS011;65911;47.502;19.148;2024-01-15T09:57:15;14.05;;;7.53;;
76978;SDS011;65911;47.502;19.148;2024-01-15T10:00:18;12.45;;;7.00;;
76978;SDS011;65911;47.502;19.148;2024-01-15T10:03:24;14.60;;;7.50;;
76978;SDS011;65911;47.502;19.148;2024-01-15T10:06:27;12.82;;;6.93;;
76978;SDS011;65911;47.502;19.148;2024-01-15T10:09:32;13.90;;;6.75;;
76978;SDS011;65911;47.502;19.148;2024-01-15T10:12:34;13.10;;;6.30;;
76978;SDS011;65911;47.502;19.148;2024-01-15T10:15:40;10.63;;;5.88;;
76978;SDS011;65911;47.502;19.148;2024-01-15T10:18:44;12.18;;;6.35;;
76978;SDS011;65911;47.502;19.148;2024-01-15T10:21:47;11.18;;;6.00;;
76978;SDS011;65911;47.502;19.148;2024-01-15T10:24:49;11.98;;;6.70;;
76978;SDS011;65911;47.502;19.148;2024-01-15T10:28:00;11.40;;;5.80;;
76978;SDS011;65911;47.502;19.148;2024-01-15T10:31:06;11.30;;;6.10;;
76978;SDS011;65911;47.502;19.148;2024-01-15T10:34:12;12.43;;;5.23;;
76978;SDS011;65911;47.502;19.148;2024-01-15T10:37:15;10.68;;;5.63;;
76978;SDS011;65911;47.502;19.148;2024-01-15T10:40:18;10.25;;;5.20;;
76978;SDS011;65911;47.502;19.148;2024-01-15T10:43:21;10.90;;;5.90;;
76978;SDS011;65911;47.502;19.148;2024-01-15T10:46:27;10.25;;;5.55;;
76978;SDS011;65911;47.502;19.148;2024-01-15T10:49:35;12.05;;;5.78;;
76978;SDS011;65911;47.502;19.148;2024-01-15T10:53:02;8.90;;;4.22;;
76978;SDS011;65911;47.502;19.148;2024-01-15T11:00:02;10.75;;;5.22;;
76978;SDS011;65911;47.502;19.148;2024-01-15T11:03:07;8.90;;;4.80;;
76978;SDS011;65911;47.502;19.148;2024-01-15T11:09:57;8.20;;;4.65;;
76978;SDS011;65911;47.502;19.148;2024-01-15T11:13:02;8.85;;;4.60;;
76978;SDS011;65911;47.502;19.148;2024-01-15T11:16:09;7.83;;;4.30;;
76978;SDS011;65911;47.502;19.148;2024-01-15T11:19:13;8.05;;;4.53;;
76978;SDS011;65911;47.502;19.148;2024-01-15T11:25:35;8.05;;;4.45;;
76978;SDS011;65911;47.502;19.148;2024-01-15T11:28:47;8.23;;;4.45;;
76978;SDS011;65911;47.502;19.148;2024-01-15T11:34:59;8.23;;;4.20;;
76978;SDS011;65911;47.502;19.148;2024-01-15T11:38:04;7.07;;;3.70;;
76978;SDS011;65911;47.502;19.148;2024-01-15T11:41:14;8.68;;;4.20;;
76978;SDS011;65911;47.502;19.148;2024-01-15T11:44:20;10.90;;;3.70;;
76978;SDS011;65911;47.502;19.148;2024-01-15T11:47:33;7.27;;;3.90;;
76978;SDS011;65911;47.502;19.148;2024-01-15T11:50:50;6.60;;;3.55;;
76978;SDS011;65911;47.502;19.148;2024-01-15T11:53:53;6.32;;;3.55;;
76978;SDS011;65911;47.502;19.148;2024-01-15T11:57:02;7.03;;;3.80;;
76978;SDS011;65911;47.502;19.148;2024-01-15T12:00:07;5.32;;;3.60;;
76978;SDS011;65911;47.502;19.148;2024-01-15T12:03:14;7.07;;;3.45;;
76978;SDS011;65911;47.502;19.148;2024-01-15T12:06:16;5.85;;;3.75;;
76978;SDS011;65911;47.502;19.148;2024-01-15T12:09:19;6.47;;;3.30;;
76978;SDS011;65911;47.502;19.148;2024-01-15T12:12:27;5.10;;;2.85;;
76978;SDS011;65911;47.502;19.148;2024-01-15T12:16:02;5.13;;;2.97;;
76978;SDS011;65911;47.502;19.148;2024-01-15T12:19:06;7.33;;;2.80;;
76978;SDS011;65911;47.502;19.148;2024-01-15T12:22:08;6.22;;;3.20;;
76978;SDS011;65911;47.502;19.148;2024-01-15T12:25:11;6.22;;;3.00;;
76978;SDS011;65911;47.502;19.148;2024-01-15T12:28:13;6.80;;;2.78;;
76978;SDS011;65911;47.502;19.148;2024-01-15T12:31:16;5.07;;;3.10;;
76978;SDS011;65911;47.502;19.148;2024-01-15T12:34:19;6.47;;;3.08;;
76978;SDS011;65911;47.502;19.148;2024-01-15T12:37:22;5.70;;;2.90;;
76978;SDS011;65911;47.502;19.148;2024-01-15T12:40:25;5.13;;;2.90;;
76978;SDS011;65911;47.502;19.148;2024-01-15T12:43:28;5.18;;;2.65;;
76978;SDS011;65911;47.502;19.148;2024-01-15T12:46:31;4.70;;;2.83;;
76978;SDS011;65911;47.502;19.148;2024-01-15T12:49:35;4.87;;;2.90;;
76978;SDS011;65911;47.502;19.148;2024-01-15T12:52:40;4.50;;;2.67;;
76978;SDS011;65911;47.502;19.148;2024-01-15T12:55:45;5.85;;;3.33;;
76978;SDS011;65911;47.502;19.148;2024-01-15T12:58:48;5.30;;;3.08;;
76978;SDS011;65911;47.502;19.148;2024-01-15T13:01:50;6.95;;;3.30;;
76978;SDS011;65911;47.502;19.148;2024-01-15T13:04:53;5.38;;;2.85;;
76978;SDS011;65911;47.502;19.148;2024-01-15T13:07:56;6.40;;;2.88;;
76978;SDS011;65911;47.502;19.148;2024-01-15T13:10:59;4.50;;;2.27;;
76978;SDS011;65911;47.502;19.148;2024-01-15T13:14:01;4.25;;;2.33;;
76978;SDS011;65911;47.502;19.148;2024-01-15T13:17:03;8.45;;;3.00;;
76978;SDS011;65911;47.502;19.148;2024-01-15T13:20:06;5.80;;;2.93;;
76978;SDS011;65911;47.502;19.148;2024-01-15T13:23:09;6.45;;;3.10;;
76978;SDS011;65911;47.502;19.148;2024-01-15T13:26:11;5.75;;;2.75;;
76978;SDS011;65911;47.502;19.148;2024-01-15T13:29:14;8.38;;;3.10;;
76978;SDS011;65911;47.502;19.148;2024-01-15T13:32:22;5.40;;;2.72;;
76978;SDS011;65911;47.502;19.148;2024-01-15T13:35:28;7.35;;;3.25;;
76978;SDS011;65911;47.502;19.148;2024-01-15T13:38:30;6.97;;;3.38;;
76978;SDS011;65911;47.502;19.148;2024-01-15T13:41:38;5.50;;;2.37;;
76978;SDS011;65911;47.502;19.148;2024-01-15T13:44:40;5.75;;;2.65;;
76978;SDS011;65911;47.502;19.148;2024-01-15T13:47:45;4.50;;;2.60;;
76978;SDS011;65911;47.502;19.148;2024-01-15T13:50:47;4.23;;;2.87;;
76978;SDS011;65911;47.502;19.148;2024-01-15T13:53:50;6.22;;;2.45;;
76978;SDS011;65911;47.502;19.148;2024-01-15T13:56:53;5.68;;;2.60;;
76978;SDS011;65911;47.502;19.148;2024-01-15T13:59:56;7.57;;;3.20;;
76978;SDS011;65911;47.502;19.148;2024-01-15T14:02:58;5.38;;;2.67;;
76978;SDS011;65911;47.502;19.148;2024-01-15T14:06:00;4.75;;;2.83;;
76978;SDS011;65911;47.502;19.148;2024-01-15T14:09:05;5.60;;;2.33;;
76978;SDS011;65911;47.502;19.148;2024-01-15T14:12:07;4.93;;;2.27;;
76978;SDS011;65911;47.502;19.148;2024-01-15T14:15:09;4.50;;;2.58;;
76978;SDS011;65911;47.502;19.148;2024-01-15T14:18:12;5.03;;;2.60;;
76978;SDS011;65911;47.502;19.148;2024-01-15T14:21:14;7.00;;;3.33;;
76978;SDS011;65911;47.502;19.148;2024-01-15T14:24:17;3.97;;;2.20;;
76978;SDS011;65911;47.502;19.148;2024-01-15T14:27:19;6.40;;;2.50;;
76978;SDS011;65911;47.502;19.148;2024-01-15T14:30:22;5.40;;;2.97;;
76978;SDS011;65911;47.502;19.148;2024-01-15T14:33:24;5.18;;;2.20;;
76978;SDS011;65911;47.502;19.148;2024-01-15T14:36:26;6.03;;;2.50;;
76978;SDS011;65911;47.502;19.148;2024-01-15T14:39:28;5.32;;;2.70;;
76978;SDS011;65911;47.502;19.148;2024-01-15T14:42:31;4.93;;;2.63;;
76978;SDS011;65911;47.502;19.148;2024-01-15T14:45:33;5.80;;;2.97;;
76978;SDS011;65911;47.502;19.148;2024-01-15T14:48:35;6.85;;;2.60;;
76978;SDS011;65911;47.502;19.148;2024-01-15T14:51:38;5.80;;;3.07;;
76978;SDS011;65911;47.502;19.148;2024-01-15T14:54:40;3.85;;;2.65;;
76978;SDS011;65911;47.502;19.148;2024-01-15T14:57:43;4.78;;;2.90;;
76978;SDS011;65911;47.502;19.148;2024-01-15T15:00:45;4.50;;;2.85;;
76978;SDS011;65911;47.502;19.148;2024-01-15T15:03:48;5.15;;;2.40;;
76978;SDS011;65911;47.502;19.148;2024-01-15T15:06:50;4.57;;;2.67;;
76978;SDS011;65911;47.502;19.148;2024-01-15T15:09:53;5.32;;;2.75;;
76978;SDS011;65911;47.502;19.148;2024-01-15T15:12:55;3.83;;;2.10;;
76978;SDS011;65911;47.502;19.148;2024-01-15T15:15:58;3.80;;;2.75;;
76978;SDS011;65911;47.502;19.148;2024-01-15T15:19:00;5.63;;;2.72;;
76978;SDS011;65911;47.502;19.148;2024-01-15T15:22:02;3.83;;;2.50;;
76978;SDS011;65911;47.502;19.148;2024-01-15T15:25:05;4.55;;;2.80;;
76978;SDS011;65911;47.502;19.148;2024-01-15T15:28:11;5.78;;;2.47;;
76978;SDS011;65911;47.502;19.148;2024-01-15T15:31:13;6.07;;;2.47;;
76978;SDS011;65911;47.502;19.148;2024-01-15T15:34:15;7.63;;;2.95;;
76978;SDS011;65911;47.502;19.148;2024-01-15T15:37:18;5.72;;;2.70;;
76978;SDS011;65911;47.502;19.148;2024-01-15T15:40:20;3.95;;;2.22;;
76978;SDS011;65911;47.502;19.148;2024-01-15T15:43:24;3.50;;;2.10;;
76978;SDS011;65911;47.502;19.148;2024-01-15T15:46:26;7.65;;;2.30;;
76978;SDS011;65911;47.502;19.148;2024-01-15T15:49:29;3.70;;;2.38;;
76978;SDS011;65911;47.502;19.148;2024-01-15T15:52:31;10.10;;;2.70;;
76978;SDS011;65911;47.502;19.148;2024-01-15T15:55:33;5.57;;;2.70;;
76978;SDS011;65911;47.502;19.148;2024-01-15T15:58:38;4.70;;;2.60;;
76978;SDS011;65911;47.502;19.148;2024-01-15T16:01:41;4.55;;;2.67;;
76978;SDS011;65911;47.502;19.148;2024-01-15T16:04:46;6.80;;;2.67;;
76978;SDS011;65911;47.502;19.148;2024-01-15T16:07:49;5.50;;;3.15;;
76978;SDS011;65911;47.502;19.148;2024-01-15T16:10:51;6.22;;;2.80;;
76978;SDS011;65911;47.502;19.148;2024-01-15T16:13:54;6.53;;;2.60;;
76978;SDS011;65911;47.502;19.148;2024-01-15T16:16:56;5.60;;;2.55;;
76978;SDS011;65911;47.502;19.148;2024-01-15T16:20:19;4.80;;;2.60;;
76978;SDS011;65911;47.502;19.148;2024-01-15T16:23:42;7.47;;;3.23;;
76978;SDS011;65911;47.502;19.148;2024-01-15T16:27:04;4.70;;;2.45;;
76978;SDS011;65911;47.502;19.148;2024-01-15T16:30:14;6.63;;;2.95;;
76978;SDS011;65911;47.502;19.148;2024-01-15T16:33:30;4.88;;;2.80;;
76978;SDS011;65911;47.502;19.148;2024-01-15T16:36:32;4.95;;;2.50;;
76978;SDS011;65911;47.502;19.148;2024-01-15T16:39:35;5.72;;;2.97;;
76978;SDS011;65911;47.502;19.148;2024-01-15T16:42:37;6.82;;;3.13;;
76978;SDS011;65911;47.502;19.148;2024-01-15T16:45:40;6.33;;;2.83;;
76978;SDS011;65911;47.502;19.148;2024-01-15T16:48:42;6.18;;;2.90;;
76978;SDS011;65911;47.502;19.148;2024-01-15T16:51:45;5.55;;;2.78;;
76978;SDS011;65911;47.502;19.148;2024-01-15T16:54:47;4.80;;;3.03;;
76978;SDS011;65911;47.502;19.148;2024-01-15T16:57:49;8.75;;;3.10;;
76978;SDS011;65911;47.502;19.148;2024-01-15T17:00:52;4.97;;;3.00;;
76978;SDS011;65911;47.502;19.148;2024-01-15T17:03:54;4.40;;;3.05;;
76978;SDS011;65911;47.502;19.148;2024-01-15T17:06:56;4.60;;;2.75;;
76978;SDS011;65911;47.502;19.148;2024-01-15T17:09:58;3.80;;;2.40;;
76978;SDS011;65911;47.502;19.148;2024-01-15T17:13:01;5.72;;;2.85;;
76978;SDS011;65911;47.502;19.148;2024-01-15T17:16:04;4.73;;;2.70;;
76978;SDS011;65911;47.502;19.148;2024-01-15T17:19:06;6.90;;;3.00;;
76978;SDS011;65911;47.502;19.148;2024-01-15T17:22:10;5.80;;;2.38;;
76978;SDS011;65911;47.502;19.148;2024-01-15T17:25:12;5.47;;;2.70;;
76978;SDS011;65911;47.502;19.148;2024-01-15T17:28:14;5.05;;;2.78;;
76978;SDS011;65911;47.502;19.148;2024-01-15T17:31:17;4.82;;;2.10;;
76978;SDS011;65911;47.502;19.148;2024-01-15T17:34:19;4.05;;;2.30;;
76978;SDS011;65911;47.502;19.148;2024-01-15T17:37:21;3.55;;;2.22;;
76978;SDS011;65911;47.502;19.148;2024-01-15T17:40:23;6.80;;;2.60;;
76978;SDS011;65911;47.502;19.148;2024-01-15T17:43:25;4.10;;;2.53;;
76978;SDS011;65911;47.502;19.148;2024-01-15T17:46:28;4.17;;;2.20;;
76978;SDS011;65911;47.502;19.148;2024-01-15T17:49:31;4.20;;;2.38;;
76978;SDS011;65911;47.502;19.148;2024-01-15T17:52:33;3.95;;;2.33;;
76978;SDS011;65911;47.502;19.148;2024-01-15T17:55:35;4.33;;;2.20;;
76978;SDS011;65911;47.502;19.148;2024-01-15T17:58:38;4.28;;;2.00;;
76978;SDS011;65911;47.502;19.148;2024-01-15T18:01:41;4.70;;;2.30;;
76978;SDS011;65911;47.502;19.148;2024-01-15T18:04:45;7.60;;;2.20;;
76978;SDS011;65911;47.502;19.148;2024-01-15T18:07:47;3.42;;;2.17;;
76978;SDS011;65911;47.502;19.148;2024-01-15T18:10:50;3.58;;;2.20;;
76978;SDS011;65911;47.502;19.148;2024-01-15T18:13:52;4.30;;;2.60;;